sensor_id;sensor_type;location;lat;lon;timestamp;temperature;humidity
49829;DHT22;35723;51.194;5.112;2023-03-26T00:00:05;11.20;99.90
49829;DHT22;35723;51.194;5.112;2023-03-26T00:02:33;11.30;99.90
49829;DHT22;35723;51.194;5.112;2023-03-26T00:04:59;11.20;99.90
49829;DHT22;35723;51.194;5.112;2023-03-26T00:07:25;11.30;99.90
49829;DHT22;35723;51.194;5.112;2023-03-26T00:09:52;11.20;99.90
49829;DHT22;35723;51.194;5.112;2023-03-26T00:12:18;11.30;99.90
49829;DHT22;35723;51.194;5.112;2023-03-26T00:14:43;11.20;99.90
49829;DHT22;35723;51.194;5.112;2023-03-26T00:17:09;11.20;99.90
49829;DHT22;35723;51.194;5.112;2023-03-26T00:19:35;11.20;99.90
49829;DHT22;35723;51.194;5.112;2023-03-26T00:22:01;11.20;99.90
49829;DHT22;35723;51.194;5.112;2023-03-26T00:24:28;11.20;99.90
49829;DHT22;35723;51.194;5.112;2023-03-26T00:26:54;11.10;99.90
49829;DHT22;35723;51.194;5.112;2023-03-26T00:29:21;11.00;99.90
49829;DHT22;35723;51.194;5.112;2023-03-26T00:31:52;11.10;99.90
49829;DHT22;35723;51.194;5.112;2023-03-26T00:34:17;11.10;99.90
49829;DHT22;35723;51.194;5.112;2023-03-26T00:36:43;11.00;99.90
49829;DHT22;35723;51.194;5.112;2023-03-26T00:39:11;11.00;99.90
49829;DHT22;35723;51.194;5.112;2023-03-26T00:41:38;11.00;99.90
49829;DHT22;35723;51.194;5.112;2023-03-26T00:44:08;11.00;99.90
49829;DHT22;35723;51.194;5.112;2023-03-26T00:46:33;11.10;99.90
49829;DHT22;35723;51.194;5.112;2023-03-26T00:49:00;11.10;99.90
49829;DHT22;35723;51.194;5.112;2023-03-26T00:51:28;11.00;99.90
49829;DHT22;35723;51.194;5.112;2023-03-26T00:53:55;11.10;99.90
49829;DHT22;35723;51.194;5.112;2023-03-26T00:56:21;11.00;99.90
49829;DHT22;35723;51.194;5.112;2023-03-26T00:58:47;11.00;99.90
49829;DHT22;35723;51.194;5.112;2023-03-26T01:01:18;10.90;99.90
49829;DHT22;35723;51.194;5.112;2023-03-26T01:03:45;11.00;99.90
49829;DHT22;35723;51.194;5.112;2023-03-26T01:06:15;11.00;99.90
49829;DHT22;35723;51.194;5.112;2023-03-26T01:08:46;10.90;99.90
49829;DHT22;35723;51.194;5.112;2023-03-26T01:13:46;11.00;99.90
49829;DHT22;35723;51.194;5.112;2023-03-26T01:16:26;11.00;99.90
49829;DHT22;35723;51.194;5.112;2023-03-26T01:18:53;10.90;99.90
49829;DHT22;35723;51.194;5.112;2023-03-26T01:21:23;11.00;99.90
49829;DHT22;35723;51.194;5.112;2023-03-26T01:26:37;11.10;99.90
49829;DHT22;35723;51.194;5.112;2023-03-26T01:29:19;11.10;99.90
49829;DHT22;35723;51.194;5.112;2023-03-26T01:32:02;11.20;99.90
49829;DHT22;35723;51.194;5.112;2023-03-26T01:34:49;11.20;99.90
49829;DHT22;35723;51.194;5.112;2023-03-26T01:42:36;11.20;99.90
49829;DHT22;35723;51.194;5.112;2023-03-26T01:45:14;11.10;99.90
49829;DHT22;35723;51.194;5.112;2023-03-26T01:47:41;11.10;99.90
49829;DHT22;35723;51.194;5.112;2023-03-26T01:50:08;10.90;99.90
49829;DHT22;35723;51.194;5.112;2023-03-26T01:52:34;11.00;99.90
49829;DHT22;35723;51.194;5.112;2023-03-26T01:55:00;11.10;99.90
49829;DHT22;35723;51.194;5.112;2023-03-26T02:00:15;11.00;99.90
49829;DHT22;35723;51.194;5.112;2023-03-26T02:03:44;10.70;99.90
49829;DHT22;35723;51.194;5.112;2023-03-26T02:06:00;10.90;99.90
49829;DHT22;35723;51.194;5.112;2023-03-26T02:08:37;11.00;99.90
49829;DHT22;35723;51.194;5.112;2023-03-26T02:11:14;11.00;99.90
49829;DHT22;35723;51.194;5.112;2023-03-26T02:13:43;11.00;99.90
49829;DHT22;35723;51.194;5.112;2023-03-26T02:16:12;10.90;99.90
49829;DHT22;35723;51.194;5.112;2023-03-26T02:18:42;10.90;99.90
49829;DHT22;35723;51.194;5.112;2023-03-26T02:21:12;10.80;99.90
49829;DHT22;35723;51.194;5.112;2023-03-26T02:23:40;10.90;99.90
49829;DHT22;35723;51.194;5.112;2023-03-26T02:26:09;11.00;99.90
49829;DHT22;35723;51.194;5.112;2023-03-26T02:28:36;10.90;99.90
49829;DHT22;35723;51.194;5.112;2023-03-26T02:31:03;11.00;99.90
49829;DHT22;35723;51.194;5.112;2023-03-26T02:33:29;11.10;99.90
49829;DHT22;35723;51.194;5.112;2023-03-26T02:35:56;11.20;99.90
49829;DHT22;35723;51.194;5.112;2023-03-26T02:38:27;11.20;99.90
49829;DHT22;35723;51.194;5.112;2023-03-26T02:40:54;11.20;99.90
49829;DHT22;35723;51.194;5.112;2023-03-26T02:43:21;11.20;99.90
49829;DHT22;35723;51.194;5.112;2023-03-26T02:45:46;11.30;99.90
49829;DHT22;35723;51.194;5.112;2023-03-26T02:48:12;11.20;99.90
49829;DHT22;35723;51.194;5.112;2023-03-26T02:50:40;11.30;99.90
49829;DHT22;35723;51.194;5.112;2023-03-26T02:53:06;11.30;99.90
49829;DHT22;35723;51.194;5.112;2023-03-26T02:55:32;11.30;99.90
49829;DHT22;35723;51.194;5.112;2023-03-26T02:57:58;11.30;99.90
49829;DHT22;35723;51.194;5.112;2023-03-26T03:00:23;11.30;99.90
49829;DHT22;35723;51.194;5.112;2023-03-26T03:02:50;11.30;99.90
49829;DHT22;35723;51.194;5.112;2023-03-26T03:05:17;11.30;99.90
49829;DHT22;35723;51.194;5.112;2023-03-26T03:07:44;11.30;99.90
49829;DHT22;35723;51.194;5.112;2023-03-26T03:10:12;11.30;99.90
49829;DHT22;35723;51.194;5.112;2023-03-26T03:12:41;11.30;99.90
49829;DHT22;35723;51.194;5.112;2023-03-26T03:15:08;11.30;99.90
49829;DHT22;35723;51.194;5.112;2023-03-26T03:17:34;11.30;99.90
49829;DHT22;35723;51.194;5.112;2023-03-26T03:19:59;11.30;99.90
49829;DHT22;35723;51.194;5.112;2023-03-26T03:22:25;11.30;99.90
49829;DHT22;35723;51.194;5.112;2023-03-26T03:24:51;11.30;99.90
49829;DHT22;35723;51.194;5.112;2023-03-26T03:27:17;11.30;99.90
49829;DHT22;35723;51.194;5.112;2023-03-26T03:29:46;11.30;99.90
49829;DHT22;35723;51.194;5.112;2023-03-26T03:32:12;11.20;99.90
49829;DHT22;35723;51.194;5.112;2023-03-26T03:34:37;11.20;99.90
49829;DHT22;35723;51.194;5.112;2023-03-26T03:37:04;11.30;99.90
49829;DHT22;35723;51.194;5.112;2023-03-26T03:39:30;11.20;99.90
49829;DHT22;35723;51.194;5.112;2023-03-26T03:41:55;11.20;99.90
49829;DHT22;35723;51.194;5.112;2023-03-26T03:44:21;11.10;99.90
49829;DHT22;35723;51.194;5.112;2023-03-26T03:46:47;11.20;99.90
49829;DHT22;35723;51.194;5.112;2023-03-26T03:49:14;11.20;99.90
49829;DHT22;35723;51.194;5.112;2023-03-26T03:51:40;11.10;99.90
49829;DHT22;35723;51.194;5.112;2023-03-26T03:54:07;11.10;99.90
49829;DHT22;35723;51.194;5.112;2023-03-26T03:56:32;11.10;99.90
49829;DHT22;35723;51.194;5.112;2023-03-26T03:58:58;11.10;99.90
49829;DHT22;35723;51.194;5.112;2023-03-26T04:01:24;11.00;99.90
49829;DHT22;35723;51.194;5.112;2023-03-26T04:03:50;11.00;99.90
49829;DHT22;35723;51.194;5.112;2023-03-26T04:06:16;11.00;99.90
49829;DHT22;35723;51.194;5.112;2023-03-26T04:08:45;11.00;99.90
49829;DHT22;35723;51.194;5.112;2023-03-26T04:11:12;11.10;99.90
49829;DHT22;35723;51.194;5.112;2023-03-26T04:13:38;11.00;99.90
49829;DHT22;35723;51.194;5.112;2023-03-26T04:16:04;11.00;99.90
49829;DHT22;35723;51.194;5.112;2023-03-26T04:18:29;11.00;99.90
49829;DHT22;35723;51.194;5.112;2023-03-26T04:20:57;11.00;99.90
49829;DHT22;35723;51.194;5.112;2023-03-26T04:23:26;11.00;99.90
49829;DHT22;35723;51.194;5.112;2023-03-26T04:25:54;11.00;99.90
49829;DHT22;35723;51.194;5.112;2023-03-26T04:28:32;11.00;99.90
49829;DHT22;35723;51.194;5.112;2023-03-26T04:31:00;11.00;99.90
49829;DHT22;35723;51.194;5.112;2023-03-26T04:33:32;11.00;99.90
49829;DHT22;35723;51.194;5.112;2023-03-26T04:35:59;11.00;99.90
49829;DHT22;35723;51.194;5.112;2023-03-26T04:38:31;10.90;99.90
49829;DHT22;35723;51.194;5.112;2023-03-26T04:41:01;11.00;99.90
49829;DHT22;35723;51.194;5.112;2023-03-26T04:43:26;11.00;99.90
49829;DHT22;35723;51.194;5.112;2023-03-26T04:45:53;11.00;99.90
49829;DHT22;35723;51.194;5.112;2023-03-26T04:48:19;11.00;99.90
49829;DHT22;35723;51.194;5.112;2023-03-26T04:50:45;10.90;99.90
49829;DHT22;35723;51.194;5.112;2023-03-26T04:53:14;10.90;99.90
49829;DHT22;35723;51.194;5.112;2023-03-26T04:55:48;10.90;99.90
49829;DHT22;35723;51.194;5.112;2023-03-26T04:58:16;10.90;99.90
49829;DHT22;35723;51.194;5.112;2023-03-26T05:00:42;10.90;99.90
49829;DHT22;35723;51.194;5.112;2023-03-26T05:03:10;10.90;99.90
49829;DHT22;35723;51.194;5.112;2023-03-26T05:05:36;10.90;99.90
49829;DHT22;35723;51.194;5.112;2023-03-26T05:08:02;10.90;99.90
49829;DHT22;35723;51.194;5.112;2023-03-26T05:10:27;10.90;99.90
49829;DHT22;35723;51.194;5.112;2023-03-26T05:12:53;10.90;99.90
49829;DHT22;35723;51.194;5.112;2023-03-26T05:15:19;10.80;99.90
49829;DHT22;35723;51.194;5.112;2023-03-26T05:17:45;10.80;99.90
49829;DHT22;35723;51.194;5.112;2023-03-26T05:20:25;10.90;99.90
49829;DHT22;35723;51.194;5.112;2023-03-26T05:22:51;10.90;99.90
49829;DHT22;35723;51.194;5.112;2023-03-26T05:25:17;10.80;99.90
49829;DHT22;35723;51.194;5.112;2023-03-26T05:27:43;10.80;99.90
49829;DHT22;35723;51.194;5.112;2023-03-26T05:30:13;10.80;99.90
49829;DHT22;35723;51.194;5.112;2023-03-26T05:32:40;10.80;99.90
49829;DHT22;35723;51.194;5.112;2023-03-26T05:35:06;10.80;99.90
49829;DHT22;35723;51.194;5.112;2023-03-26T05:37:32;10.80;99.90
49829;DHT22;35723;51.194;5.112;2023-03-26T05:39:58;10.70;99.90
49829;DHT22;35723;51.194;5.112;2023-03-26T05:42:24;10.80;99.90
49829;DHT22;35723;51.194;5.112;2023-03-26T05:44:50;10.70;99.90
49829;DHT22;35723;51.194;5.112;2023-03-26T05:47:16;10.80;99.90
49829;DHT22;35723;51.194;5.112;2023-03-26T05:49:41;10.80;99.90
49829;DHT22;35723;51.194;5.112;2023-03-26T05:52:07;10.80;99.90
49829;DHT22;35723;51.194;5.112;2023-03-26T05:54:33;10.90;99.90
49829;DHT22;35723;51.194;5.112;2023-03-26T05:56:59;10.90;99.90
49829;DHT22;35723;51.194;5.112;2023-03-26T05:59:25;10.90;99.90
49829;DHT22;35723;51.194;5.112;2023-03-26T06:01:51;10.90;99.90
49829;DHT22;35723;51.194;5.112;2023-03-26T06:04:19;10.80;99.90
49829;DHT22;35723;51.194;5.112;2023-03-26T06:06:45;10.70;99.90
49829;DHT22;35723;51.194;5.112;2023-03-26T06:09:11;10.70;99.90
49829;DHT22;35723;51.194;5.112;2023-03-26T06:11:38;10.70;99.90
49829;DHT22;35723;51.194;5.112;2023-03-26T06:14:04;10.80;99.90
49829;DHT22;35723;51.194;5.112;2023-03-26T06:16:30;10.80;99.90
49829;DHT22;35723;51.194;5.112;2023-03-26T06:18:55;10.70;99.90
49829;DHT22;35723;51.194;5.112;2023-03-26T06:21:21;10.80;99.90
49829;DHT22;35723;51.194;5.112;2023-03-26T06:23:47;10.80;99.90
49829;DHT22;35723;51.194;5.112;2023-03-26T06:26:13;10.80;99.90
49829;DHT22;35723;51.194;5.112;2023-03-26T06:28:40;10.80;99.90
49829;DHT22;35723;51.194;5.112;2023-03-26T06:31:05;10.70;99.90
49829;DHT22;35723;51.194;5.112;2023-03-26T06:33:31;10.80;99.90
49829;DHT22;35723;51.194;5.112;2023-03-26T06:35:57;10.70;99.90
49829;DHT22;35723;51.194;5.112;2023-03-26T06:38:23;10.70;99.90
49829;DHT22;35723;51.194;5.112;2023-03-26T06:40:49;10.70;99.90
49829;DHT22;35723;51.194;5.112;2023-03-26T06:43:15;10.80;99.90
49829;DHT22;35723;51.194;5.112;2023-03-26T06:45:41;10.70;99.90
49829;DHT22;35723;51.194;5.112;2023-03-26T06:48:09;10.80;99.90
49829;DHT22;35723;51.194;5.112;2023-03-26T06:50:35;10.70;99.90
49829;DHT22;35723;51.194;5.112;2023-03-26T06:53:01;10.80;99.90
49829;DHT22;35723;51.194;5.112;2023-03-26T06:55:26;10.80;99.90
49829;DHT22;35723;51.194;5.112;2023-03-26T06:57:53;10.80;99.90
49829;DHT22;35723;51.194;5.112;2023-03-26T07:00:20;10.80;99.90
49829;DHT22;35723;51.194;5.112;2023-03-26T07:02:46;10.80;99.90
49829;DHT22;35723;51.194;5.112;2023-03-26T07:05:12;10.80;99.90
49829;DHT22;35723;51.194;5.112;2023-03-26T07:07:38;10.90;99.90
49829;DHT22;35723;51.194;5.112;2023-03-26T07:10:05;10.80;99.90
49829;DHT22;35723;51.194;5.112;2023-03-26T07:12:30;10.80;99.90
49829;DHT22;35723;51.194;5.112;2023-03-26T07:14:56;11.00;99.90
49829;DHT22;35723;51.194;5.112;2023-03-26T07:17:22;11.10;99.90
49829;DHT22;35723;51.194;5.112;2023-03-26T07:19:47;10.50;99.90
49829;DHT22;35723;51.194;5.112;2023-03-26T07:22:22;10.40;99.90
49829;DHT22;35723;51.194;5.112;2023-03-26T07:24:48;10.30;99.90
49829;DHT22;35723;51.194;5.112;2023-03-26T07:32:52;10.50;99.90
49829;DHT22;35723;51.194;5.112;2023-03-26T07:35:33;10.50;99.90
49829;DHT22;35723;51.194;5.112;2023-03-26T07:43:50;10.70;99.90
49829;DHT22;35723;51.194;5.112;2023-03-26T07:46:20;10.60;99.90
49829;DHT22;35723;51.194;5.112;2023-03-26T07:48:48;10.60;99.90
49829;DHT22;35723;51.194;5.112;2023-03-26T07:51:16;10.60;99.90
49829;DHT22;35723;51.194;5.112;2023-03-26T07:53:43;10.70;99.90
49829;DHT22;35723;51.194;5.112;2023-03-26T07:56:36;10.70;99.90
49829;DHT22;35723;51.194;5.112;2023-03-26T08:04:45;10.70;99.90
49829;DHT22;35723;51.194;5.112;2023-03-26T08:07:39;10.70;99.90
49829;DHT22;35723;51.194;5.112;2023-03-26T08:21:16;10.70;99.90
49829;DHT22;35723;51.194;5.112;2023-03-26T08:29:51;10.60;99.90
49829;DHT22;35723;51.194;5.112;2023-03-26T08:32:19;10.60;99.90
49829;DHT22;35723;51.194;5.112;2023-03-26T08:34:45;10.60;99.90
49829;DHT22;35723;51.194;5.112;2023-03-26T08:37:11;10.60;99.90
49829;DHT22;35723;51.194;5.112;2023-03-26T08:39:37;10.70;99.90
49829;DHT22;35723;51.194;5.112;2023-03-26T08:47:59;10.60;99.90
49829;DHT22;35723;51.194;5.112;2023-03-26T08:56:26;10.60;99.90
49829;DHT22;35723;51.194;5.112;2023-03-26T09:08:14;10.60;99.90
49829;DHT22;35723;51.194;5.112;2023-03-26T09:19:29;10.60;99.90
49829;DHT22;35723;51.194;5.112;2023-03-26T09:30:50;10.60;99.90
49829;DHT22;35723;51.194;5.112;2023-03-26T09:36:32;10.50;99.90
49829;DHT22;35723;51.194;5.112;2023-03-26T09:39:11;10.50;99.90
49829;DHT22;35723;51.194;5.112;2023-03-26T09:41:46;10.60;99.90
49829;DHT22;35723;51.194;5.112;2023-03-26T10:04:35;10.70;99.90
49829;DHT22;35723;51.194;5.112;2023-03-26T10:12:38;10.70;99.90
49829;DHT22;35723;51.194;5.112;2023-03-26T10:18:30;10.80;99.90
49829;DHT22;35723;51.194;5.112;2023-03-26T10:21:19;10.70;99.90
49829;DHT22;35723;51.194;5.112;2023-03-26T10:26:49;10.70;99.90
49829;DHT22;35723;51.194;5.112;2023-03-26T10:35:17;10.70;99.90
49829;DHT22;35723;51.194;5.112;2023-03-26T10:38:04;10.60;99.90
49829;DHT22;35723;51.194;5.112;2023-03-26T10:40:57;10.70;99.90
49829;DHT22;35723;51.194;5.112;2023-03-26T10:51:57;10.80;99.90
49829;DHT22;35723;51.194;5.112;2023-03-26T10:57:05;10.90;99.90
49829;DHT22;35723;51.194;5.112;2023-03-26T10:59:32;10.90;99.90
49829;DHT22;35723;51.194;5.112;2023-03-26T11:08:00;10.90;99.90
49829;DHT22;35723;51.194;5.112;2023-03-26T11:10:48;11.00;99.90
49829;DHT22;35723;51.194;5.112;2023-03-26T11:16:03;11.00;99.90
49829;DHT22;35723;51.194;5.112;2023-03-26T11:18:52;10.90;99.90
49829;DHT22;35723;51.194;5.112;2023-03-26T11:24:46;10.90;99.90
49829;DHT22;35723;51.194;5.112;2023-03-26T11:30:28;10.90;99.90
49829;DHT22;35723;51.194;5.112;2023-03-26T11:32:59;11.00;99.90
49829;DHT22;35723;51.194;5.112;2023-03-26T11:35:34;11.00;99.90
49829;DHT22;35723;51.194;5.112;2023-03-26T11:38:04;11.00;99.90
49829;DHT22;35723;51.194;5.112;2023-03-26T11:40:42;11.00;99.90
49829;DHT22;35723;51.194;5.112;2023-03-26T11:43:13;11.10;99.90
49829;DHT22;35723;51.194;5.112;2023-03-26T11:45:44;11.10;99.90
49829;DHT22;35723;51.194;5.112;2023-03-26T11:48:18;11.10;99.90
49829;DHT22;35723;51.194;5.112;2023-03-26T11:50:49;11.20;99.90
49829;DHT22;35723;51.194;5.112;2023-03-26T11:53:18;11.10;99.90
49829;DHT22;35723;51.194;5.112;2023-03-26T11:56:01;11.10;99.90
49829;DHT22;35723;51.194;5.112;2023-03-26T11:58:59;11.10;99.90
49829;DHT22;35723;51.194;5.112;2023-03-26T12:01:39;11.20;99.90
49829;DHT22;35723;51.194;5.112;2023-03-26T12:04:13;11.20;99.90
49829;DHT22;35723;51.194;5.112;2023-03-26T12:06:49;11.20;99.90
49829;DHT22;35723;51.194;5.112;2023-03-26T12:09:17;11.30;99.90
49829;DHT22;35723;51.194;5.112;2023-03-26T12:11:43;11.30;99.90
49829;DHT22;35723;51.194;5.112;2023-03-26T12:14:23;11.30;99.90
49829;DHT22;35723;51.194;5.112;2023-03-26T12:17:29;11.40;99.90
49829;DHT22;35723;51.194;5.112;2023-03-26T12:19:55;11.40;99.90
49829;DHT22;35723;51.194;5.112;2023-03-26T12:27:44;11.20;99.90
49829;DHT22;35723;51.194;5.112;2023-03-26T12:30:26;11.30;99.90
49829;DHT22;35723;51.194;5.112;2023-03-26T12:32:58;11.30;99.90
49829;DHT22;35723;51.194;5.112;2023-03-26T12:35:29;11.30;99.90
49829;DHT22;35723;51.194;5.112;2023-03-26T12:38:14;11.40;99.90
49829;DHT22;35723;51.194;5.112;2023-03-26T12:40:40;11.40;99.90
49829;DHT22;35723;51.194;5.112;2023-03-26T12:43:28;11.30;99.90
49829;DHT22;35723;51.194;5.112;2023-03-26T12:45:56;11.30;99.90
49829;DHT22;35723;51.194;5.112;2023-03-26T12:48:24;11.40;99.90
49829;DHT22;35723;51.194;5.112;2023-03-26T12:56:30;11.50;99.90
49829;DHT22;35723;51.194;5.112;2023-03-26T12:59:15;11.40;99.90
49829;DHT22;35723;51.194;5.112;2023-03-26T13:15:31;11.70;99.90
49829;DHT22;35723;51.194;5.112;2023-03-26T13:20:56;11.70;99.90
49829;DHT22;35723;51.194;5.112;2023-03-26T13:26:36;11.70;99.90
49829;DHT22;35723;51.194;5.112;2023-03-26T13:37:48;11.70;99.90
49829;DHT22;35723;51.194;5.112;2023-03-26T13:48:02;11.60;99.90
49829;DHT22;35723;51.194;5.112;2023-03-26T13:50:34;11.60;99.90
49829;DHT22;35723;51.194;5.112;2023-03-26T13:53:04;11.60;99.90
49829;DHT22;35723;51.194;5.112;2023-03-26T13:55:56;11.70;99.90
49829;DHT22;35723;51.194;5.112;2023-03-26T14:01:14;11.70;99.90
49829;DHT22;35723;51.194;5.112;2023-03-26T14:03:58;11.70;99.90
49829;DHT22;35723;51.194;5.112;2023-03-26T14:09:04;11.70;99.90
49829;DHT22;35723;51.194;5.112;2023-03-26T14:14:59;11.70;99.90
49829;DHT22;35723;51.194;5.112;2023-03-26T14:23:55;11.70;99.90
49829;DHT22;35723;51.194;5.112;2023-03-26T14:30:03;11.80;99.90
49829;DHT22;35723;51.194;5.112;2023-03-26T14:35:33;11.70;99.90
49829;DHT22;35723;51.194;5.112;2023-03-26T14:38:08;11.70;99.90
49829;DHT22;35723;51.194;5.112;2023-03-26T14:43:40;11.70;99.90
49829;DHT22;35723;51.194;5.112;2023-03-26T14:54:36;11.70;99.90
49829;DHT22;35723;51.194;5.112;2023-03-26T15:00:14;11.70;99.90
49829;DHT22;35723;51.194;5.112;2023-03-26T15:11:11;11.60;99.90
49829;DHT22;35723;51.194;5.112;2023-03-26T15:22:32;11.40;99.90
49829;DHT22;35723;51.194;5.112;2023-03-26T15:45:34;10.90;99.90
49829;DHT22;35723;51.194;5.112;2023-03-26T15:53:46;10.90;99.90
49829;DHT22;35723;51.194;5.112;2023-03-26T15:56:59;10.90;99.90
49829;DHT22;35723;51.194;5.112;2023-03-26T16:05:22;11.00;99.90
49829;DHT22;35723;51.194;5.112;2023-03-26T16:08:06;11.00;99.90
49829;DHT22;35723;51.194;5.112;2023-03-26T16:10:51;11.10;99.90
49829;DHT22;35723;51.194;5.112;2023-03-26T16:13:31;11.10;99.90
49829;DHT22;35723;51.194;5.112;2023-03-26T16:21:31;10.90;99.90
49829;DHT22;35723;51.194;5.112;2023-03-26T16:29:25;10.90;99.90
49829;DHT22;35723;51.194;5.112;2023-03-26T16:32:15;10.90;99.90
49829;DHT22;35723;51.194;5.112;2023-03-26T16:42:47;10.90;99.90
49829;DHT22;35723;51.194;5.112;2023-03-26T16:54:20;10.90;99.90
49829;DHT22;35723;51.194;5.112;2023-03-26T16:57:21;10.90;99.90
49829;DHT22;35723;51.194;5.112;2023-03-26T16:59:58;10.80;99.90
49829;DHT22;35723;51.194;5.112;2023-03-26T17:02:33;10.80;99.90
49829;DHT22;35723;51.194;5.112;2023-03-26T17:05:15;10.90;99.90
49829;DHT22;35723;51.194;5.112;2023-03-26T17:08:13;10.90;99.90
49829;DHT22;35723;51.194;5.112;2023-03-26T17:13:50;9.80;99.90
49829;DHT22;35723;51.194;5.112;2023-03-26T17:16:32;9.80;99.90
49829;DHT22;35723;51.194;5.112;2023-03-26T17:19:23;9.90;99.90
49829;DHT22;35723;51.194;5.112;2023-03-26T17:22:00;10.10;99.90
49829;DHT22;35723;51.194;5.112;2023-03-26T17:24:37;10.20;99.90
49829;DHT22;35723;51.194;5.112;2023-03-26T17:27:17;10.30;99.90
49829;DHT22;35723;51.194;5.112;2023-03-26T17:41:07;10.50;99.90
49829;DHT22;35723;51.194;5.112;2023-03-26T17:43:42;10.60;99.90
49829;DHT22;35723;51.194;5.112;2023-03-26T17:49:19;10.60;99.90
49829;DHT22;35723;51.194;5.112;2023-03-26T17:57:32;10.50;99.90
49829;DHT22;35723;51.194;5.112;2023-03-26T18:00:05;10.60;99.90
49829;DHT22;35723;51.194;5.112;2023-03-26T18:02:40;10.60;99.90
49829;DHT22;35723;51.194;5.112;2023-03-26T18:05:09;10.60;99.90
49829;DHT22;35723;51.194;5.112;2023-03-26T18:18:00;10.60;99.90
49829;DHT22;35723;51.194;5.112;2023-03-26T18:20:28;10.60;99.90
49829;DHT22;35723;51.194;5.112;2023-03-26T18:22:54;10.60;99.90
49829;DHT22;35723;51.194;5.112;2023-03-26T18:25:29;10.50;99.90
49829;DHT22;35723;51.194;5.112;2023-03-26T18:27:58;10.50;99.90
49829;DHT22;35723;51.194;5.112;2023-03-26T18:30:26;10.40;99.90
49829;DHT22;35723;51.194;5.112;2023-03-26T18:33:00;10.50;99.90
49829;DHT22;35723;51.194;5.112;2023-03-26T18:35:30;10.50;99.90
49829;DHT22;35723;51.194;5.112;2023-03-26T18:38:00;10.30;99.90
49829;DHT22;35723;51.194;5.112;2023-03-26T18:40:39;10.40;99.90
49829;DHT22;35723;51.194;5.112;2023-03-26T18:43:14;10.40;99.90
49829;DHT22;35723;51.194;5.112;2023-03-26T18:45:42;10.30;99.90
49829;DHT22;35723;51.194;5.112;2023-03-26T18:48:21;10.40;99.90
49829;DHT22;35723;51.194;5.112;2023-03-26T18:50:55;10.40;99.90
49829;DHT22;35723;51.194;5.112;2023-03-26T18:53:25;10.40;99.90
49829;DHT22;35723;51.194;5.112;2023-03-26T18:55:54;10.30;99.90
49829;DHT22;35723;51.194;5.112;2023-03-26T18:58:33;10.20;99.90
49829;DHT22;35723;51.194;5.112;2023-03-26T19:01:01;10.10;99.90
49829;DHT22;35723;51.194;5.112;2023-03-26T19:03:33;10.10;99.90
49829;DHT22;35723;51.194;5.112;2023-03-26T19:06:01;10.20;99.90
49829;DHT22;35723;51.194;5.112;2023-03-26T19:08:29;10.20;99.90
49829;DHT22;35723;51.194;5.112;2023-03-26T19:10:57;10.20;99.90
49829;DHT22;35723;51.194;5.112;2023-03-26T19:13:27;10.20;99.90
49829;DHT22;35723;51.194;5.112;2023-03-26T19:15:53;10.10;99.90
49829;DHT22;35723;51.194;5.112;2023-03-26T19:18:24;10.00;99.90
49829;DHT22;35723;51.194;5.112;2023-03-26T19:20:54;10.00;99.90
49829;DHT22;35723;51.194;5.112;2023-03-26T19:23:25;10.00;99.90
49829;DHT22;35723;51.194;5.112;2023-03-26T19:25:54;10.00;99.90
49829;DHT22;35723;51.194;5.112;2023-03-26T19:28:47;10.00;99.90
49829;DHT22;35723;51.194;5.112;2023-03-26T19:31:30;10.00;99.90
49829;DHT22;35723;51.194;5.112;2023-03-26T19:34:02;10.00;99.90
49829;DHT22;35723;51.194;5.112;2023-03-26T19:36:31;10.00;99.90
49829;DHT22;35723;51.194;5.112;2023-03-26T19:41:35;9.90;99.90
49829;DHT22;35723;51.194;5.112;2023-03-26T19:44:23;9.90;99.90
49829;DHT22;35723;51.194;5.112;2023-03-26T19:46:50;9.90;99.90
49829;DHT22;35723;51.194;5.112;2023-03-26T19:49:27;9.90;99.90
49829;DHT22;35723;51.194;5.112;2023-03-26T19:52:12;9.90;99.90
49829;DHT22;35723;51.194;5.112;2023-03-26T19:57:14;9.80;99.90
49829;DHT22;35723;51.194;5.112;2023-03-26T19:59:39;9.80;99.90
49829;DHT22;35723;51.194;5.112;2023-03-26T20:02:12;9.70;99.90
49829;DHT22;35723;51.194;5.112;2023-03-26T20:04:40;9.70;99.90
49829;DHT22;35723;51.194;5.112;2023-03-26T20:07:18;9.70;99.90
49829;DHT22;35723;51.194;5.112;2023-03-26T20:09:44;9.80;99.90
49829;DHT22;35723;51.194;5.112;2023-03-26T20:12:11;9.80;99.90
49829;DHT22;35723;51.194;5.112;2023-03-26T20:14:37;9.70;99.90
49829;DHT22;35723;51.194;5.112;2023-03-26T20:17:05;9.70;99.90
49829;DHT22;35723;51.194;5.112;2023-03-26T20:19:32;9.70;99.90
49829;DHT22;35723;51.194;5.112;2023-03-26T20:21:59;9.80;99.90
49829;DHT22;35723;51.194;5.112;2023-03-26T20:24:32;9.70;99.90
49829;DHT22;35723;51.194;5.112;2023-03-26T20:26:58;9.70;99.90
49829;DHT22;35723;51.194;5.112;2023-03-26T20:29:23;9.60;99.90
49829;DHT22;35723;51.194;5.112;2023-03-26T20:31:49;9.50;99.90
49829;DHT22;35723;51.194;5.112;2023-03-26T20:34:20;9.60;99.90
49829;DHT22;35723;51.194;5.112;2023-03-26T20:36:47;9.50;99.90
49829;DHT22;35723;51.194;5.112;2023-03-26T20:39:20;9.40;99.90
49829;DHT22;35723;51.194;5.112;2023-03-26T20:41:47;9.30;99.90
49829;DHT22;35723;51.194;5.112;2023-03-26T20:44:15;9.50;99.90
49829;DHT22;35723;51.194;5.112;2023-03-26T20:46:42;9.50;99.90
49829;DHT22;35723;51.194;5.112;2023-03-26T20:49:09;9.40;99.90
49829;DHT22;35723;51.194;5.112;2023-03-26T20:51:38;9.50;99.90
49829;DHT22;35723;51.194;5.112;2023-03-26T20:54:16;9.50;99.90
49829;DHT22;35723;51.194;5.112;2023-03-26T20:56:42;9.40;99.90
49829;DHT22;35723;51.194;5.112;2023-03-26T20:59:15;9.40;99.90
49829;DHT22;35723;51.194;5.112;2023-03-26T21:01:42;9.30;99.90
49829;DHT22;35723;51.194;5.112;2023-03-26T21:04:08;9.40;99.90
49829;DHT22;35723;51.194;5.112;2023-03-26T21:06:34;9.40;99.90
49829;DHT22;35723;51.194;5.112;2023-03-26T21:08:59;9.40;99.90
49829;DHT22;35723;51.194;5.112;2023-03-26T21:11:42;9.40;99.90
49829;DHT22;35723;51.194;5.112;2023-03-26T21:14:23;9.40;99.90
49829;DHT22;35723;51.194;5.112;2023-03-26T21:16:50;9.30;99.90
49829;DHT22;35723;51.194;5.112;2023-03-26T21:19:16;9.40;99.90
49829;DHT22;35723;51.194;5.112;2023-03-26T21:24:48;9.40;99.90
49829;DHT22;35723;51.194;5.112;2023-03-26T21:29:59;9.30;99.90
49829;DHT22;35723;51.194;5.112;2023-03-26T21:32:25;9.30;99.90
49829;DHT22;35723;51.194;5.112;2023-03-26T21:34:51;9.30;99.90
49829;DHT22;35723;51.194;5.112;2023-03-26T21:37:17;9.20;99.90
49829;DHT22;35723;51.194;5.112;2023-03-26T21:39:44;9.20;99.90
49829;DHT22;35723;51.194;5.112;2023-03-26T21:42:11;9.20;99.90
49829;DHT22;35723;51.194;5.112;2023-03-26T21:44:37;9.00;99.90
49829;DHT22;35723;51.194;5.112;2023-03-26T21:47:04;9.00;99.90
49829;DHT22;35723;51.194;5.112;2023-03-26T21:49:32;9.00;99.90
49829;DHT22;35723;51.194;5.112;2023-03-26T21:51:58;9.00;99.90